Time;durP1;ratioP1;P1;durP2;ratioP2;P2;SDS_P1;SDS_P2;PMS_P1;PMS_P2;Temp;Humidity;BMP_temperature;BMP_pressure;BME280_temperature;BME280_humidity;BME280_pressure;Samples;Min_cycle;Max_cycle;Signal;HPM_P1;HPM_P2
2024/03/16 00:00:31;;;;;;;1.60;1.47;;;11.40;98.00;;;;;;5015720;28;20502;-73
2024/03/16 00:02:59;;;;;;;1.90;1.47;;;11.40;98.00;;;;;;5015696;28;20454;-73
2024/03/16 00:05:32;;;;;;;3.00;1.80;;;11.50;98.00;;;;;;5015641;28;20456;-73
2024/03/16 00:08:04;;;;;;;2.53;1.70;;;11.50;98.00;;;;;;4999061;28;20480;-73
2024/03/16 00:10:32;;;;;;;2.60;1.70;;;11.40;98.00;;;;;;4999172;28;20459;-73
2024/03/16 00:13:00;;;;;;;1.90;1.40;;;11.40;98.00;;;;;;5015281;28;20460;-73
2024/03/16 00:15:27;;;;;;;2.50;1.40;;;11.40;98.00;;;;;;5015313;28;20451;-73
2024/03/16 00:17:55;;;;;;;1.40;1.30;;;11.30;98.00;;;;;;5014803;28;20465;-73
2024/03/16 00:20:22;;;;;;;2.07;1.60;;;11.40;98.00;;;;;;5014744;28;20453;-73
2024/03/16 00:22:51;;;;;;;3.83;2.27;;;11.40;98.00;;;;;;5015148;28;20854;-73
2024/03/16 00:25:18;;;;;;;2.87;2.07;;;11.30;98.00;;;;;;5015008;28;20536;-73
2024/03/16 00:27:46;;;;;;;3.37;2.00;;;11.40;98.00;;;;;;5014961;28;20476;-73
2024/03/16 00:30:13;;;;;;;3.33;1.47;;;11.40;98.00;;;;;;5014230;28;20451;-73
2024/03/16 00:32:41;;;;;;;1.97;1.30;;;11.50;98.00;;;;;;5015029;28;20462;-73
2024/03/16 00:35:12;;;;;;;3.40;1.40;;;11.40;98.00;;;;;;5014774;28;20506;-73
2024/03/16 00:37:39;;;;;;;1.40;1.30;;;11.40;98.00;;;;;;5015097;28;20454;-73
2024/03/16 00:40:09;;;;;;;2.17;1.27;;;11.50;98.00;;;;;;5014641;28;20456;-73
2024/03/16 00:42:36;;;;;;;2.73;1.20;;;11.40;98.00;;;;;;5014703;28;20451;-73
2024/03/16 00:45:03;;;;;;;1.10;1.10;;;11.30;98.00;;;;;;5014663;28;20863;-73
2024/03/16 00:47:31;;;;;;;1.77;1.23;;;11.30;98.00;;;;;;5014591;28;20459;-73
2024/03/16 00:49:58;;;;;;;1.50;1.10;;;11.40;98.00;;;;;;5014596;28;20497;-73
2024/03/16 00:52:25;;;;;;;1.60;1.17;;;11.20;98.00;;;;;;5014485;28;20442;-73
2024/03/16 00:54:52;;;;;;;1.70;1.20;;;11.10;98.00;;;;;;5014072;28;20450;-73
2024/03/16 00:57:19;;;;;;;1.43;1.30;;;11.00;98.00;;;;;;5014369;28;20459;-73
2024/03/16 00:59:46;;;;;;;1.60;1.13;;;11.00;98.00;;;;;;5014650;28;20462;-73
2024/03/16 01:02:13;;;;;;;1.80;1.30;;;11.00;98.00;;;;;;5014642;28;20459;-73
2024/03/16 01:04:41;;;;;;;1.30;1.10;;;11.00;98.00;;;;;;5014380;28;20459;-73
2024/03/16 01:07:08;;;;;;;1.30;1.20;;;11.00;98.00;;;;;;5014438;28;20458;-73
2024/03/16 01:09:35;;;;;;;1.40;1.30;;;11.00;98.00;;;;;;5014420;28;20494;-72
2024/03/16 01:12:02;;;;;;;1.30;1.20;;;10.90;98.00;;;;;;5014443;28;20450;-73
2024/03/16 01:14:31;;;;;;;1.67;1.30;;;10.80;98.00;;;;;;5014403;28;20951;-73
2024/03/16 01:16:58;;;;;;;1.70;1.30;;;10.70;98.00;;;;;;5014497;28;20612;-72
2024/03/16 01:19:26;;;;;;;2.37;1.30;;;10.70;98.00;;;;;;5014462;28;20451;-73
2024/03/16 01:21:53;;;;;;;1.70;1.27;;;10.70;98.00;;;;;;4998293;28;20763;-73
2024/03/16 01:24:21;;;;;;;1.30;1.30;;;10.70;98.00;;;;;;5014371;28;20462;-73
2024/03/16 01:26:49;;;;;;;1.30;1.20;;;10.80;98.00;;;;;;5014076;28;20457;-72
2024/03/16 01:29:16;;;;;;;1.30;1.17;;;10.80;98.00;;;;;;5014102;28;20478;-73
2024/03/16 01:31:43;;;;;;;1.70;1.20;;;10.80;98.00;;;;;;5018361;28;20490;-73
2024/03/16 01:34:10;;;;;;;1.20;1.20;;;10.80;98.00;;;;;;5018303;28;20462;-73
2024/03/16 01:36:38;;;;;;;1.27;1.10;;;10.90;98.00;;;;;;5018287;28;20497;-72
2024/03/16 01:39:06;;;;;;;1.77;1.30;;;10.80;98.00;;;;;;5018159;28;20447;-73
2024/03/16 01:41:33;;;;;;;1.30;1.20;;;10.90;98.00;;;;;;5018231;28;20516;-73
2024/03/16 01:44:09;;;;;;;1.30;1.20;;;10.90;98.00;;;;;;5017612;28;20459;-72
2024/03/16 01:46:39;;;;;;;1.60;1.30;;;10.90;98.00;;;;;;5019035;28;20452;-72
2024/03/16 01:49:07;;;;;;;1.20;1.00;;;10.90;98.00;;;;;;5018004;28;20536;-73
2024/03/16 01:51:34;;;;;;;2.03;1.10;;;11.00;98.00;;;;;;5018061;28;20523;-70
2024/03/16 01:54:02;;;;;;;1.20;1.20;;;11.00;98.00;;;;;;5017417;28;20454;-70
2024/03/16 01:56:30;;;;;;;1.40;1.20;;;11.00;98.00;;;;;;5017662;28;20475;-70
2024/03/16 01:58:58;;;;;;;1.40;1.20;;;11.00;98.00;;;;;;5017643;28;20551;-71
2024/03/16 02:01:25;;;;;;;1.30;1.17;;;11.00;98.00;;;;;;5017541;28;20453;-71
2024/03/16 02:03:54;;;;;;;1.40;1.17;;;11.00;98.00;;;;;;5017521;28;20548;-70
2024/03/16 02:06:21;;;;;;;1.20;1.10;;;11.00;98.00;;;;;;5017737;28;20860;-70
2024/03/16 02:08:48;;;;;;;1.27;1.10;;;11.00;98.00;;;;;;5017370;28;20873;-70
2024/03/16 02:11:15;;;;;;;1.20;1.10;;;11.10;98.00;;;;;;5017428;28;20454;-70
2024/03/16 02:13:42;;;;;;;1.40;1.20;;;11.00;98.00;;;;;;5016660;28;20457;-70
2024/03/16 02:16:09;;;;;;;1.60;1.30;;;11.00;98.00;;;;;;5016823;28;20453;-71
2024/03/16 02:18:36;;;;;;;1.47;1.20;;;11.00;98.00;;;;;;5016936;28;20547;-71
2024/03/16 02:21:04;;;;;;;1.30;1.10;;;11.00;98.00;;;;;;5017145;28;20453;-71
2024/03/16 02:23:32;;;;;;;1.70;1.13;;;11.10;98.00;;;;;;5017277;28;20735;-71
2024/03/16 02:25:59;;;;;;;2.80;1.23;;;11.10;98.00;;;;;;5017437;28;20453;-71
2024/03/16 02:28:26;;;;;;;4.63;1.30;;;11.10;98.00;;;;;;5016917;28;20469;-71
2024/03/16 02:30:54;;;;;;;1.30;1.10;;;11.10;98.00;;;;;;5016909;28;20543;-71
2024/03/16 02:33:21;;;;;;;2.50;1.10;;;11.00;98.00;;;;;;5016719;28;20456;-70
2024/03/16 02:35:48;;;;;;;1.20;1.10;;;11.10;98.00;;;;;;5017089;28;20445;-71
2024/03/16 02:38:17;;;;;;;1.60;1.37;;;11.10;98.00;;;;;;5016865;28;20459;-70
2024/03/16 02:40:44;;;;;;;3.30;1.20;;;11.10;98.00;;;;;;5017025;28;20464;-70
2024/03/16 02:43:11;;;;;;;1.40;1.20;;;11.10;98.00;;;;;;5015869;28;20455;-71
2024/03/16 02:45:38;;;;;;;1.63;1.20;;;11.10;98.00;;;;;;5017051;28;20487;-70
2024/03/16 02:48:06;;;;;;;2.37;1.30;;;11.10;98.00;;;;;;5016824;28;20463;-70
2024/03/16 02:50:33;;;;;;;1.40;1.23;;;11.10;98.00;;;;;;5016805;28;20497;-70
2024/03/16 02:53:00;;;;;;;2.73;1.40;;;11.20;98.00;;;;;;5016555;28;20454;-70
2024/03/16 02:55:28;;;;;;;1.67;1.23;;;11.10;98.00;;;;;;5016425;28;20946;-71
2024/03/16 02:57:55;;;;;;;2.47;1.50;;;11.10;98.00;;;;;;5016452;28;20454;-71
2024/03/16 03:00:23;;;;;;;1.53;1.20;;;11.10;98.00;;;;;;5016821;28;20511;-70
2024/03/16 03:02:51;;;;;;;1.40;1.20;;;11.10;98.00;;;;;;5000375;28;21002;-71
2024/03/16 03:05:20;;;;;;;1.40;1.20;;;11.10;98.00;;;;;;5016820;28;20544;-71
2024/03/16 03:07:48;;;;;;;1.30;1.20;;;11.10;98.00;;;;;;5016808;28;20452;-70
2024/03/16 03:10:15;;;;;;;1.50;1.20;;;11.10;98.00;;;;;;5016599;28;20495;-70
2024/03/16 03:12:42;;;;;;;1.30;1.30;;;11.10;98.00;;;;;;5016591;28;20453;-71
2024/03/16 03:15:11;;;;;;;1.33;1.17;;;11.10;98.00;;;;;;5016577;28;20465;-71
2024/03/16 03:17:38;;;;;;;2.33;1.20;;;11.20;98.00;;;;;;5016652;28;20835;-70
2024/03/16 03:20:08;;;;;;;1.67;1.23;;;11.20;98.00;;;;;;5016738;28;20461;-71
2024/03/16 03:22:36;;;;;;;1.30;1.20;;;11.30;98.00;;;;;;5016349;28;20517;-70
2024/03/16 03:25:03;;;;;;;1.70;1.33;;;11.30;98.00;;;;;;5016237;28;20531;-71
2024/03/16 03:27:31;;;;;;;1.30;1.20;;;11.30;98.00;;;;;;5016130;28;20470;-71
2024/03/16 03:29:58;;;;;;;1.40;1.20;;;11.30;98.00;;;;;;5015825;28;20492;-71
2024/03/16 03:32:25;;;;;;;3.00;1.40;;;11.30;98.00;;;;;;5015893;28;20451;-70
2024/03/16 03:34:52;;;;;;;3.17;1.40;;;11.20;98.00;;;;;;5015507;28;20459;-70
2024/03/16 03:37:20;;;;;;;1.63;1.10;;;11.20;98.00;;;;;;5015435;28;20449;-71
2024/03/16 03:39:51;;;;;;;1.50;1.10;;;11.20;98.00;;;;;;5015835;28;20602;-70
2024/03/16 03:42:24;;;;;;;1.47;1.30;;;11.20;98.00;;;;;;5015749;28;20538;-70
2024/03/16 03:45:00;;;;;;;1.70;1.20;;;11.20;98.00;;;;;;5016309;28;20948;-70
2024/03/16 03:47:49;;;;;;;1.97;1.30;;;11.20;98.00;;;;;;5017053;28;20453;-71
2024/03/16 03:50:26;;;;;;;2.40;1.23;;;11.10;98.00;;;;;;5018659;28;20488;-70
2024/03/16 03:52:55;;;;;;;1.27;1.10;;;11.10;98.00;;;;;;5016750;28;20459;-72
2024/03/16 03:55:22;;;;;;;2.20;1.10;;;11.10;98.00;;;;;;5015741;28;20482;-72
2024/03/16 03:57:50;;;;;;;1.87;1.30;;;11.10;98.00;;;;;;5015368;28;20459;-72
2024/03/16 04:00:17;;;;;;;1.40;1.20;;;11.10;98.00;;;;;;5015537;28;20455;-72
2024/03/16 04:02:44;;;;;;;1.20;1.10;;;11.10;98.00;;;;;;5015385;28;20454;-72
2024/03/16 04:05:12;;;;;;;1.50;1.20;;;11.10;98.00;;;;;;5015439;28;20538;-72
2024/03/16 04:07:39;;;;;;;1.40;1.30;;;11.00;98.00;;;;;;5015427;28;20463;-72
2024/03/16 04:10:06;;;;;;;2.90;1.20;;;11.00;98.00;;;;;;5015167;28;20484;-72
2024/03/16 04:12:35;;;;;;;1.57;1.20;;;11.00;98.00;;;;;;5015236;28;20469;-72
2024/03/16 04:15:02;;;;;;;1.27;1.10;;;11.00;98.00;;;;;;5015096;28;20459;-72
2024/03/16 04:17:30;;;;;;;2.10;1.30;;;11.00;98.00;;;;;;5015358;28;20472;-72
2024/03/16 04:19:57;;;;;;;1.53;1.23;;;11.00;98.00;;;;;;5014999;28;20461;-72
2024/03/16 04:22:25;;;;;;;1.47;1.17;;;11.10;98.00;;;;;;5015251;28;20460;-72
2024/03/16 04:24:52;;;;;;;3.60;1.40;;;11.00;98.00;;;;;;5015024;28;20470;-72
2024/03/16 04:27:19;;;;;;;2.07;1.33;;;11.00;98.00;;;;;;5014952;28;20464;-72
2024/03/16 04:29:46;;;;;;;3.00;1.20;;;10.90;98.00;;;;;;5014823;28;20493;-72
2024/03/16 04:32:14;;;;;;;1.50;1.27;;;10.80;98.00;;;;;;5014974;28;20951;-72
2024/03/16 04:34:41;;;;;;;2.70;1.30;;;10.80;98.00;;;;;;5014463;28;20461;-71
2024/03/16 04:37:08;;;;;;;1.67;1.20;;;10.90;98.00;;;;;;5014773;28;20454;-72
2024/03/16 04:39:36;;;;;;;1.50;1.30;;;11.00;98.00;;;;;;5014837;28;20501;-71
2024/03/16 04:42:03;;;;;;;1.47;1.33;;;11.10;98.00;;;;;;5014729;28;20455;-71
2024/03/16 04:44:30;;;;;;;2.33;1.40;;;11.10;98.00;;;;;;5014426;28;20967;-72
2024/03/16 04:46:57;;;;;;;1.43;1.37;;;11.10;98.00;;;;;;5013938;28;20451;-71
2024/03/16 04:49:25;;;;;;;1.50;1.40;;;11.00;98.00;;;;;;5014054;28;20930;-71
2024/03/16 04:51:52;;;;;;;1.73;1.30;;;10.90;98.00;;;;;;5014014;28;20466;-72
2024/03/16 04:54:19;;;;;;;1.40;1.20;;;10.90;98.00;;;;;;5014448;28;20460;-72
2024/03/16 04:56:47;;;;;;;3.70;1.60;;;10.80;98.00;;;;;;5014845;28;20459;-72
2024/03/16 04:59:14;;;;;;;2.23;1.30;;;10.80;98.00;;;;;;5014793;28;20462;-72
2024/03/16 05:01:41;;;;;;;1.30;1.20;;;10.90;98.00;;;;;;5007536;28;20464;-72
2024/03/16 05:04:08;;;;;;;1.50;1.30;;;10.90;98.00;;;;;;4998168;28;20462;-71
2024/03/16 05:06:36;;;;;;;2.87;1.37;;;10.90;98.00;;;;;;4998088;28;20461;-71
2024/03/16 05:09:05;;;;;;;2.50;1.40;;;11.00;98.00;;;;;;4998260;28;20455;-71
2024/03/16 05:11:32;;;;;;;1.70;1.50;;;10.80;98.00;;;;;;4998669;28;20451;-72
2024/03/16 05:14:01;;;;;;;1.47;1.20;;;10.70;98.00;;;;;;4998308;28;20462;-72
2024/03/16 05:16:28;;;;;;;4.20;1.40;;;10.60;98.00;;;;;;4998350;28;20461;-72
2024/03/16 05:18:57;;;;;;;1.90;1.30;;;10.60;98.00;;;;;;4997736;28;20447;-72
2024/03/16 05:21:24;;;;;;;4.80;1.43;;;10.50;98.00;;;;;;4997488;28;20498;-72
2024/03/16 05:23:51;;;;;;;1.30;1.20;;;10.50;98.00;;;;;;4997721;28;20533;-72
2024/03/16 05:26:20;;;;;;;1.80;1.20;;;10.40;98.00;;;;;;4998649;28;21019;-72
2024/03/16 05:28:48;;;;;;;1.90;1.30;;;10.40;98.00;;;;;;4998071;28;20461;-72
2024/03/16 05:31:15;;;;;;;2.70;1.27;;;10.40;98.00;;;;;;4997533;28;20907;-72
2024/03/16 05:33:42;;;;;;;1.30;1.20;;;10.40;98.00;;;;;;4997523;28;20472;-72
2024/03/16 05:36:12;;;;;;;1.30;1.30;;;10.40;98.00;;;;;;4997495;28;20457;-72
2024/03/16 05:38:40;;;;;;;1.50;1.20;;;10.50;98.00;;;;;;4997784;28;20977;-72
2024/03/16 05:41:07;;;;;;;1.20;1.00;;;10.50;98.00;;;;;;4997581;28;20455;-72
2024/03/16 05:43:34;;;;;;;2.03;1.30;;;10.50;98.00;;;;;;4997570;28;20530;-72
2024/03/16 05:46:02;;;;;;;1.80;1.40;;;10.60;98.00;;;;;;4997585;28;20553;-72
2024/03/16 05:48:29;;;;;;;3.10;1.30;;;10.60;98.00;;;;;;4997244;28;20461;-72
2024/03/16 05:50:56;;;;;;;1.50;1.20;;;10.50;98.00;;;;;;4997155;28;20494;-72
2024/03/16 05:53:24;;;;;;;1.57;1.30;;;10.50;98.00;;;;;;4997494;28;20890;-72
2024/03/16 05:55:51;;;;;;;2.37;1.30;;;10.50;98.00;;;;;;4997476;28;20939;-72
2024/03/16 05:58:20;;;;;;;1.57;1.20;;;10.50;98.00;;;;;;4997159;28;20458;-72
2024/03/16 06:00:48;;;;;;;2.93;1.10;;;10.50;98.00;;;;;;4998164;28;20452;-72
2024/03/16 06:03:15;;;;;;;1.40;1.30;;;10.70;98.00;;;;;;4997547;28;20893;-72
2024/03/16 06:05:43;;;;;;;1.30;1.23;;;10.70;98.00;;;;;;4997567;28;20832;-72
2024/03/16 06:08:13;;;;;;;4.33;1.50;;;10.70;98.00;;;;;;4997600;28;20456;-72
2024/03/16 06:10:41;;;;;;;2.20;1.40;;;10.70;98.00;;;;;;4998261;28;20492;-72
2024/03/16 06:13:10;;;;;;;1.30;1.20;;;10.80;98.00;;;;;;4997262;28;21074;-72
2024/03/16 06:15:39;;;;;;;2.03;1.40;;;10.70;98.00;;;;;;4997877;28;20448;-72
2024/03/16 06:18:06;;;;;;;1.20;1.10;;;10.60;98.00;;;;;;5000141;28;20985;-72
2024/03/16 06:20:33;;;;;;;3.03;1.37;;;10.60;98.00;;;;;;5000861;28;20485;-72
2024/03/16 06:23:00;;;;;;;1.60;1.20;;;10.60;98.00;;;;;;5000830;28;20454;-72
2024/03/16 06:25:29;;;;;;;4.60;1.30;;;10.60;98.00;;;;;;5001317;28;20461;-72
2024/03/16 06:28:05;;;;;;;1.30;1.20;;;10.70;98.00;;;;;;5001485;28;20453;-72
2024/03/16 06:30:32;;;;;;;1.40;1.20;;;10.70;98.00;;;;;;5003770;28;20515;-72
2024/03/16 06:33:08;;;;;;;2.10;1.20;;;10.80;98.00;;;;;;5000880;28;20459;-72
2024/03/16 06:35:41;;;;;;;1.20;1.10;;;10.80;98.00;;;;;;5003556;28;20841;-72
2024/03/16 06:38:08;;;;;;;1.40;1.10;;;10.80;98.00;;;;;;5002425;28;20457;-72
2024/03/16 06:40:36;;;;;;;2.50;1.40;;;10.80;98.00;;;;;;5001051;28;20450;-72
2024/03/16 06:43:04;;;;;;;1.30;1.10;;;10.80;98.00;;;;;;5001077;28;20455;-72
2024/03/16 06:45:31;;;;;;;9.70;1.50;;;10.80;98.00;;;;;;5001088;28;20497;-72
2024/03/16 06:47:58;;;;;;;3.60;1.67;;;10.80;98.00;;;;;;5000902;28;20458;-72
2024/03/16 06:50:25;;;;;;;2.47;1.50;;;10.80;98.00;;;;;;5000977;28;20541;-72
2024/03/16 06:52:53;;;;;;;1.20;1.13;;;10.90;98.00;;;;;;5001074;28;20450;-71
2024/03/16 06:55:21;;;;;;;1.97;1.33;;;10.90;98.00;;;;;;5000912;28;20450;-72
2024/03/16 06:57:54;;;;;;;1.40;1.27;;;11.00;98.00;;;;;;5001368;28;20462;-72
2024/03/16 07:00:22;;;;;;;1.40;1.20;;;11.10;98.00;;;;;;5001328;28;20451;-75
2024/03/16 07:02:50;;;;;;;2.90;1.40;;;11.30;98.00;;;;;;5001520;28;20513;-77
2024/03/16 07:05:19;;;;;;;1.53;1.23;;;11.30;98.00;;;;;;5001169;28;20467;-76
2024/03/16 07:07:46;;;;;;;1.87;1.30;;;11.10;98.00;;;;;;5000671;28;20498;-75
2024/03/16 07:10:15;;;;;;;2.03;1.20;;;11.10;98.00;;;;;;5000390;28;20481;-76
2024/03/16 07:12:42;;;;;;;1.57;1.20;;;11.00;98.00;;;;;;5000640;28;20499;-75
2024/03/16 07:15:12;;;;;;;1.40;1.23;;;11.10;98.00;;;;;;5000042;28;20509;-76
2024/03/16 07:17:39;;;;;;;1.67;1.27;;;11.10;98.00;;;;;;5000883;28;20453;-76
2024/03/16 07:20:10;;;;;;;2.80;1.40;;;11.10;98.00;;;;;;5000074;28;20456;-73
2024/03/16 07:22:38;;;;;;;1.30;1.30;;;11.10;98.00;;;;;;5001085;28;20443;-75
2024/03/16 07:25:07;;;;;;;1.40;1.30;;;11.10;98.00;;;;;;5000049;28;20451;-74
2024/03/16 07:27:34;;;;;;;2.77;1.37;;;11.10;98.00;;;;;;4999025;28;20504;-74
2024/03/16 07:30:01;;;;;;;2.27;1.30;;;11.10;98.00;;;;;;4999748;28;20484;-74
2024/03/16 07:32:29;;;;;;;12.93;1.60;;;11.20;98.00;;;;;;4999918;28;20469;-73
2024/03/16 07:34:56;;;;;;;1.30;1.30;;;11.00;98.00;;;;;;4998410;28;20461;-74
2024/03/16 07:37:23;;;;;;;3.13;1.60;;;11.00;98.00;;;;;;4999126;28;20469;-75
2024/03/16 07:39:50;;;;;;;1.40;1.30;;;11.00;98.00;;;;;;4999591;28;20543;-74
2024/03/16 07:42:17;;;;;;;1.60;1.40;;;11.20;98.00;;;;;;4999846;28;20458;-72
2024/03/16 07:44:44;;;;;;;1.70;1.50;;;11.30;98.00;;;;;;4999668;28;20455;-74
2024/03/16 07:47:11;;;;;;;6.73;1.40;;;11.30;98.00;;;;;;4999538;28;20462;-72
2024/03/16 07:49:39;;;;;;;1.70;1.47;;;11.40;98.00;;;;;;4999384;28;20466;-74
2024/03/16 07:52:06;;;;;;;1.73;1.40;;;11.60;98.00;;;;;;4999467;28;20486;-73
2024/03/16 07:54:33;;;;;;;5.40;1.80;;;11.70;98.00;;;;;;4999668;28;20482;-72
2024/03/16 07:57:01;;;;;;;1.87;1.63;;;11.70;98.00;;;;;;4999365;28;20454;-73
2024/03/16 07:59:29;;;;;;;3.70;1.70;;;11.80;98.00;;;;;;4999375;28;20959;-72
2024/03/16 08:01:56;;;;;;;4.87;1.60;;;11.70;98.00;;;;;;4999267;28;20454;-72
2024/03/16 08:04:24;;;;;;;2.93;1.90;;;11.60;98.00;;;;;;4999375;28;20466;-74
2024/03/16 08:06:51;;;;;;;2.40;1.70;;;11.60;98.00;;;;;;4983139;28;21178;-74
2024/03/16 08:09:18;;;;;;;1.50;1.43;;;11.60;98.00;;;;;;4998998;28;20986;-74
2024/03/16 08:11:45;;;;;;;3.83;1.60;;;11.50;98.00;;;;;;4999082;28;20489;-73
2024/03/16 08:14:12;;;;;;;2.33;1.60;;;11.50;98.00;;;;;;4999088;28;20458;-74
2024/03/16 08:16:39;;;;;;;3.43;1.43;;;11.60;98.00;;;;;;4999098;28;20467;-74
2024/03/16 08:19:07;;;;;;;2.03;1.57;;;11.70;98.00;;;;;;4998844;28;20468;-74
2024/03/16 08:21:36;;;;;;;2.73;1.90;;;11.70;98.00;;;;;;4999211;28;20454;-73
2024/03/16 08:24:03;;;;;;;2.07;1.53;;;11.70;98.00;;;;;;4999114;28;20454;-75
2024/03/16 08:26:30;;;;;;;1.70;1.40;;;11.60;98.00;;;;;;4999120;28;20455;-75
2024/03/16 08:28:57;;;;;;;1.90;1.60;;;11.60;98.00;;;;;;4998951;28;20454;-74
2024/03/16 08:31:26;;;;;;;1.70;1.50;;;11.50;98.00;;;;;;4998965;28;20489;-74
2024/03/16 08:33:53;;;;;;;2.37;1.50;;;11.60;98.00;;;;;;4999114;28;20476;-73
2024/03/16 08:36:20;;;;;;;2.40;1.43;;;11.80;98.00;;;;;;4998645;28;20460;-74
2024/03/16 08:38:47;;;;;;;1.90;1.63;;;11.90;98.00;;;;;;4998819;28;20451;-75
2024/03/16 08:41:15;;;;;;;1.87;1.40;;;11.90;98.00;;;;;;4998397;28;20455;-76
2024/03/16 08:43:45;;;;;;;2.13;1.40;;;11.80;98.00;;;;;;4998882;28;20455;-74
2024/03/16 08:46:12;;;;;;;2.90;1.57;;;11.80;98.00;;;;;;4998759;28;20473;-72
2024/03/16 08:48:41;;;;;;;1.93;1.40;;;11.80;98.00;;;;;;4998757;28;20459;-74
2024/03/16 08:51:09;;;;;;;2.80;1.57;;;11.70;98.00;;;;;;4998998;28;20537;-74
2024/03/16 08:53:36;;;;;;;5.20;1.73;;;11.60;98.00;;;;;;4998961;28;20465;-74
2024/03/16 08:56:06;;;;;;;5.63;1.70;;;11.60;98.00;;;;;;4998419;28;20457;-75
2024/03/16 08:58:33;;;;;;;2.33;1.33;;;11.70;98.00;;;;;;4999319;28;20466;-75
2024/03/16 09:01:01;;;;;;;1.50;1.33;;;11.70;98.00;;;;;;4982632;28;20457;-74
2024/03/16 09:03:29;;;;;;;4.30;1.40;;;11.70;98.00;;;;;;4998058;28;20460;-73
2024/03/16 09:05:56;;;;;;;1.60;1.30;;;11.70;98.00;;;;;;4998544;28;20443;-73
2024/03/16 09:08:24;;;;;;;1.50;1.43;;;11.70;98.00;;;;;;4981909;28;20484;-74
2024/03/16 09:10:51;;;;;;;1.87;1.40;;;11.70;98.00;;;;;;4998097;28;20495;-74
2024/03/16 09:13:20;;;;;;;2.27;1.20;;;11.70;98.00;;;;;;4997924;28;20531;-75
2024/03/16 09:15:48;;;;;;;1.97;1.30;;;11.70;98.00;;;;;;4998062;28;20465;-74
2024/03/16 09:18:16;;;;;;;2.77;1.50;;;11.70;98.00;;;;;;4998011;28;20494;-73
2024/03/16 09:20:44;;;;;;;1.80;1.30;;;11.70;98.00;;;;;;4998405;28;20455;-73
2024/03/16 09:23:13;;;;;;;1.50;1.30;;;11.70;98.00;;;;;;4997994;28;20462;-75
2024/03/16 09:25:40;;;;;;;5.43;1.30;;;11.80;98.00;;;;;;4998735;28;20445;-75
2024/03/16 09:28:08;;;;;;;1.40;1.30;;;11.80;98.00;;;;;;4997463;28;20488;-73
2024/03/16 09:30:35;;;;;;;1.93;1.40;;;11.90;98.00;;;;;;4997779;28;20491;-74
2024/03/16 09:33:02;;;;;;;1.30;1.20;;;12.00;98.00;;;;;;4997559;28;20828;-73
2024/03/16 09:35:30;;;;;;;3.63;1.40;;;12.20;98.00;;;;;;4997220;28;20931;-74
2024/03/16 09:37:57;;;;;;;1.43;1.30;;;12.30;98.00;;;;;;4997990;28;21190;-75
2024/03/16 09:40:25;;;;;;;1.20;1.20;;;12.40;98.00;;;;;;4997955;28;20457;-73
2024/03/16 09:42:52;;;;;;;1.30;1.30;;;12.50;98.00;;;;;;4997451;28;20465;-72
2024/03/16 09:45:19;;;;;;;1.50;1.30;;;12.60;98.00;;;;;;4996339;28;20468;-75
2024/03/16 09:47:46;;;;;;;1.23;1.17;;;12.60;98.00;;;;;;4997083;28;20457;-73
2024/03/16 09:50:14;;;;;;;1.70;1.40;;;12.70;98.00;;;;;;4997208;28;20823;-74
2024/03/16 09:52:41;;;;;;;1.90;1.40;;;12.70;98.00;;;;;;5001089;28;21036;-72
2024/03/16 09:55:10;;;;;;;2.87;1.40;;;12.70;98.00;;;;;;5001760;28;20498;-73
2024/03/16 09:57:38;;;;;;;2.20;1.37;;;12.90;98.00;;;;;;5002395;28;20450;-73
2024/03/16 10:00:06;;;;;;;2.57;1.30;;;12.90;98.00;;;;;;5001597;28;20925;-75
2024/03/16 10:02:34;;;;;;;1.90;1.60;;;12.90;98.00;;;;;;5001630;28;20933;-72
2024/03/16 10:05:01;;;;;;;2.70;1.40;;;13.00;98.00;;;;;;5001764;28;20856;-74
2024/03/16 10:07:40;;;;;;;2.40;1.30;;;13.00;98.00;;;;;;5002587;28;20454;-75
2024/03/16 10:10:10;;;;;;;4.00;1.30;;;13.00;98.00;;;;;;5003821;28;20543;-73
2024/03/16 10:12:39;;;;;;;1.53;1.40;;;12.90;98.00;;;;;;5002005;28;20490;-74
2024/03/16 10:15:15;;;;;;;1.50;1.37;;;12.90;98.00;;;;;;5001397;28;20543;-73
2024/03/16 10:17:42;;;;;;;2.03;1.47;;;12.80;98.00;;;;;;5003751;28;20454;-72
2024/03/16 10:20:15;;;;;;;3.00;1.20;;;13.00;98.00;;;;;;5001172;28;20462;-72
2024/03/16 10:22:44;;;;;;;2.23;1.43;;;13.30;98.00;;;;;;5002914;28;20456;-72
2024/03/16 10:25:11;;;;;;;1.53;1.30;;;13.50;98.00;;;;;;5001508;28;20492;-73
2024/03/16 10:27:39;;;;;;;2.10;1.30;;;13.70;98.00;;;;;;5001316;28;20455;-73
2024/03/16 10:30:10;;;;;;;2.27;1.30;;;13.80;98.00;;;;;;5001334;28;20506;-72
2024/03/16 10:32:38;;;;;;;1.47;1.30;;;13.90;98.00;;;;;;5001581;28;20485;-74
2024/03/16 10:35:09;;;;;;;1.90;1.40;;;13.80;98.00;;;;;;5000716;28;20522;-73
2024/03/16 10:37:38;;;;;;;1.93;1.37;;;13.90;98.00;;;;;;5001425;28;20456;-74
2024/03/16 10:40:13;;;;;;;1.70;1.40;;;13.90;98.00;;;;;;5001858;28;20457;-73
2024/03/16 10:42:43;;;;;;;1.30;1.30;;;13.90;98.00;;;;;;5002908;28;20457;-73
2024/03/16 10:45:13;;;;;;;1.73;1.40;;;13.80;98.00;;;;;;5000480;28;20489;-75
2024/03/16 10:47:43;;;;;;;1.30;1.30;;;13.60;98.00;;;;;;5001160;28;20449;-72
2024/03/16 10:50:10;;;;;;;1.30;1.20;;;13.60;98.00;;;;;;5000741;28;20966;-73
2024/03/16 10:52:41;;;;;;;2.40;1.43;;;13.40;98.00;;;;;;5000437;28;20521;-73
2024/03/16 10:55:10;;;;;;;1.63;1.50;;;13.40;98.00;;;;;;5000855;28;20557;-72
2024/03/16 10:57:37;;;;;;;2.10;1.50;;;13.40;98.00;;;;;;5000731;28;20457;-74
2024/03/16 11:00:13;;;;;;;1.30;1.30;;;13.40;98.00;;;;;;5000265;28;20456;-74
2024/03/16 11:02:53;;;;;;;1.20;1.10;;;13.30;98.00;;;;;;5001238;28;20456;-65
2024/03/16 11:05:33;;;;;;;1.93;1.50;;;13.30;98.00;;;;;;4999980;28;20960;-72
2024/03/16 11:08:01;;;;;;;2.40;1.70;;;13.40;98.00;;;;;;4999665;28;20489;-73
2024/03/16 11:10:40;;;;;;;1.60;1.50;;;13.50;98.00;;;;;;5000058;28;20488;-74
2024/03/16 11:13:11;;;;;;;1.40;1.27;;;13.50;98.00;;;;;;4983270;28;20491;-72
2024/03/16 11:15:40;;;;;;;1.40;1.20;;;13.30;98.00;;;;;;4980331;28;20458;-73
2024/03/16 11:18:40;;;;;;;1.60;1.20;;;13.20;98.00;;;;;;4979851;28;20528;-74
2024/03/16 11:21:08;;;;;;;1.27;1.20;;;13.20;98.00;;;;;;4996484;28;20541;-74
2024/03/16 11:23:36;;;;;;;1.43;1.27;;;13.20;98.00;;;;;;4980560;28;20499;-75
2024/03/16 11:26:38;;;;;;;1.30;1.20;;;13.20;98.00;;;;;;4980827;28;20459;-74
2024/03/16 11:29:05;;;;;;;2.00;1.23;;;13.50;98.00;;;;;;4997054;28;20553;-73
2024/03/16 11:31:36;;;;;;;1.30;1.20;;;13.70;98.00;;;;;;4980256;28;20492;-73
2024/03/16 11:34:03;;;;;;;1.27;1.23;;;14.00;98.00;;;;;;4981391;28;20466;-73
2024/03/16 11:36:32;;;;;;;2.17;1.20;;;14.20;98.00;;;;;;4980244;28;20465;-75
2024/03/16 11:38:58;;;;;;;1.40;1.20;;;14.40;98.00;;;;;;4980808;28;20815;-73
2024/03/16 11:41:26;;;;;;;1.60;1.40;;;14.90;98.00;;;;;;4980265;28;21014;-75
2024/03/16 11:43:54;;;;;;;1.20;1.20;;;15.70;98.00;;;;;;4980615;28;20853;-74
2024/03/16 11:46:21;;;;;;;1.30;1.23;;;15.80;98.00;;;;;;4980078;28;20466;-74
2024/03/16 11:48:48;;;;;;;1.50;1.20;;;15.60;98.00;;;;;;4980161;28;20454;-73
2024/03/16 11:51:15;;;;;;;3.77;1.30;;;15.10;98.00;;;;;;4980093;28;20458;-76
2024/03/16 11:53:42;;;;;;;1.20;1.20;;;14.80;98.00;;;;;;4980029;28;20464;-73
2024/03/16 11:56:09;;;;;;;1.40;1.20;;;14.60;98.00;;;;;;4980042;28;20457;-74
2024/03/16 11:58:36;;;;;;;1.20;1.17;;;14.60;98.00;;;;;;4980005;28;20484;-73
2024/03/16 12:01:02;;;;;;;1.50;1.40;;;14.60;98.00;;;;;;4979998;28;20458;-74
2024/03/16 12:03:29;;;;;;;1.50;1.47;;;14.90;98.00;;;;;;4979775;28;20947;-74
2024/03/16 12:05:56;;;;;;;1.67;1.33;;;15.40;98.00;;;;;;4979924;28;20462;-73
2024/03/16 12:08:23;;;;;;;1.60;1.50;;;15.40;98.00;;;;;;4979966;28;20455;-73
2024/03/16 12:10:53;;;;;;;2.07;1.40;;;15.20;98.00;;;;;;4980054;28;20991;-75
2024/03/16 12:13:20;;;;;;;1.30;1.27;;;14.90;98.00;;;;;;4980243;28;20541;-72
2024/03/16 12:15:47;;;;;;;1.70;1.40;;;14.80;98.00;;;;;;4978633;28;20505;-73
2024/03/16 12:18:14;;;;;;;1.20;1.20;;;14.60;98.00;;;;;;4979722;28;20855;-72
2024/03/16 12:20:42;;;;;;;1.93;1.30;;;14.70;98.00;;;;;;4964510;28;20455;-72
2024/03/16 12:23:08;;;;;;;1.27;1.10;;;14.90;98.00;;;;;;4982989;28;20472;-73
2024/03/16 12:25:36;;;;;;;2.23;1.30;;;15.00;98.00;;;;;;4979314;28;20470;-75
2024/03/16 12:28:05;;;;;;;1.30;1.20;;;15.20;98.00;;;;;;4979663;28;20512;-74
2024/03/16 12:30:34;;;;;;;1.20;1.17;;;15.40;98.00;;;;;;4980084;28;20459;-72
2024/03/16 12:33:00;;;;;;;1.20;1.20;;;15.60;98.00;;;;;;4979547;28;20490;-74
2024/03/16 12:35:32;;;;;;;1.30;1.20;;;16.20;98.00;;;;;;4979327;28;20468;-72
2024/03/16 12:37:58;;;;;;;1.50;1.37;;;16.70;98.00;;;;;;4980703;28;20456;-73
2024/03/16 12:40:26;;;;;;;1.30;1.30;;;16.60;98.00;;;;;;4979276;28;20470;-74
2024/03/16 12:42:54;;;;;;;1.70;1.30;;;16.60;98.00;;;;;;4995298;28;20459;-73
2024/03/16 12:45:21;;;;;;;1.47;1.43;;;16.20;98.00;;;;;;4979008;28;20485;-72
2024/03/16 12:47:47;;;;;;;1.50;1.30;;;16.00;98.00;;;;;;4979201;28;20830;-74
2024/03/16 12:50:14;;;;;;;1.43;1.20;;;15.80;98.00;;;;;;4979097;28;20519;-75
2024/03/16 12:52:40;;;;;;;1.60;1.30;;;15.60;98.00;;;;;;4979089;28;20490;-72